createdAt,value
2019-03-04T00:02:42.783Z,85.95
2019-03-04T00:07:46.786Z,85.95
2019-03-04T00:12:50.920Z,85.62
2019-03-04T00:17:54.972Z,84.94
2019-03-04T00:22:58.999Z,86.28
2019-03-04T00:28:03.326Z,85.53
2019-03-04T00:33:07.368Z,86.94
2019-03-04T00:38:11.456Z,85.52
2019-03-04T00:43:15.602Z,85.20
2019-03-04T00:48:19.641Z,85.20
2019-03-04T00:53:23.665Z,85.29
2019-03-04T00:58:28.513Z,85.13
2019-03-04T01:03:32.538Z,84.14
2019-03-04T01:08:36.597Z,83.21
2019-03-04T01:13:40.964Z,83.25
2019-03-04T01:18:44.998Z,83.32
2019-03-04T01:23:51.442Z,82.61
2019-03-04T01:28:55.120Z,82.57
2019-03-04T01:33:59.138Z,82.51
2019-03-04T01:39:04.125Z,84.45
2019-03-04T01:44:08.202Z,85.73
2019-03-04T01:49:12.228Z,87.20
2019-03-04T01:54:16.311Z,87.07
2019-03-04T01:59:20.354Z,88.40
2019-03-04T02:04:24.367Z,87.24
2019-03-04T02:09:28.454Z,88.24
2019-03-04T02:14:32.524Z,87.88
2019-03-04T02:19:36.837Z,89.01
2019-03-04T02:24:40.874Z,89.12
2019-03-04T02:29:45.677Z,87.93
2019-03-04T02:34:49.698Z,87.05
2019-03-04T02:39:55.815Z,87.50
2019-03-04T02:44:59.835Z,88.21
2019-03-04T02:50:04.787Z,88.13
2019-03-04T02:55:09.117Z,87.52
2019-03-04T03:00:14.318Z,87.71
2019-03-04T03:05:18.882Z,86.57
2019-03-04T03:10:22.926Z,87.47
2019-03-04T03:15:27.039Z,87.14
2019-03-04T03:20:31.045Z,88.44
2019-03-04T03:25:35.353Z,87.46
2019-03-04T03:30:39.678Z,89.06
2019-03-04T03:35:43.937Z,89.02
2019-03-04T03:40:47.976Z,88.44
2019-03-04T03:45:52.201Z,88.56
2019-03-04T03:50:56.284Z,87.39
2019-03-04T03:56:00.330Z,88.10
2019-03-04T04:01:04.700Z,88.20
2019-03-04T04:06:08.745Z,87.89
2019-03-04T04:11:12.769Z,87.46
2019-03-04T04:16:16.805Z,88.44
2019-03-04T04:21:21.709Z,88.05
2019-03-04T04:26:26.185Z,88.54
2019-03-04T04:31:30.192Z,88.13
2019-03-04T04:36:34.580Z,87.86
2019-03-04T04:41:38.865Z,85.59
2019-03-04T04:46:50.723Z,85.84
2019-03-04T04:51:54.813Z,86.50
2019-03-04T04:56:59.122Z,86.00
2019-03-04T05:02:03.181Z,85.39
2019-03-04T05:07:07.548Z,87.20
2019-03-04T05:12:11.538Z,88.87
2019-03-04T05:17:15.835Z,88.87
2019-03-04T05:22:20.260Z,94.09
2019-03-04T05:27:24.339Z,94.09
2019-03-04T05:32:28.390Z,96.69
2019-03-04T05:37:32.425Z,96.69
2019-03-04T05:42:36.466Z,99.12
2019-03-04T05:47:41.250Z,99.90
2019-03-04T05:52:45.348Z,98.53
2019-03-04T05:57:49.703Z,97.94
2019-03-04T06:02:53.719Z,97.94
2019-03-04T06:07:57.791Z,97.82
2019-03-04T06:13:01.912Z,98.38
2019-03-04T06:18:07.564Z,98.06
2019-03-04T06:23:11.773Z,97.33
2019-03-04T06:28:16.168Z,97.97
2019-03-04T06:33:20.238Z,98.43
2019-03-04T06:38:24.400Z,99.07
2019-03-04T06:43:29.617Z,98.66
2019-03-04T06:48:33.935Z,98.41
2019-03-04T06:54:04.503Z,97.96
2019-03-04T06:59:20.466Z,96.87
2019-03-04T07:04:36.609Z,96.15
2019-03-04T07:09:40.910Z,95.41
2019-03-04T07:14:45.220Z,93.87
2019-03-04T07:20:02.714Z,92.68
2019-03-04T07:25:06.987Z,92.68
2019-03-04T07:30:12.317Z,91.25
2019-03-04T07:35:16.383Z,90.58
2019-03-04T07:40:20.456Z,90.35
2019-03-04T07:45:24.801Z,90.35
2019-03-04T07:50:28.828Z,90.04
2019-03-04T07:55:32.845Z,89.41
2019-03-04T08:00:36.976Z,89.23
2019-03-04T08:05:41.031Z,88.45
2019-03-04T08:11:34.757Z,88.97
2019-03-04T08:16:39.119Z,88.25
2019-03-04T08:21:43.212Z,85.32
2019-03-04T08:26:47.271Z,84.14
2019-03-04T08:31:51.320Z,80.45
2019-03-04T08:36:55.635Z,77.15
2019-03-04T08:42:00.047Z,74.87
2019-03-04T08:47:04.066Z,73.31
2019-03-04T08:52:08.095Z,74.23
2019-03-04T08:57:12.274Z,72.79
2019-03-04T09:02:16.276Z,73.42
2019-03-04T09:07:20.348Z,71.31
2019-03-04T09:12:24.701Z,72.15
2019-03-04T09:17:28.717Z,71.35
2019-03-04T09:22:32.737Z,68.91
2019-03-04T09:27:36.757Z,69.34
2019-03-04T09:32:40.997Z,67.34
2019-03-04T09:37:45.192Z,66.48
2019-03-04T09:42:49.238Z,68.86
2019-03-04T09:47:53.296Z,69.08
2019-03-04T09:52:57.342Z,67.54
2019-03-04T09:58:01.398Z,65.99
2019-03-04T10:03:34.983Z,64.09
2019-03-04T10:08:55.578Z,62.58
2019-03-04T10:14:30.665Z,61.11
2019-03-04T10:20:24.949Z,57.73
2019-03-04T10:25:59.893Z,50.19
2019-03-04T10:31:26.512Z,47.23
2019-03-04T10:37:01.821Z,44.18
2019-03-04T10:42:59.766Z,48.57
2019-03-04T10:48:03.985Z,48.59
2019-03-04T10:53:08.002Z,48.29
2019-03-04T10:58:12.185Z,48.52
2019-03-04T11:03:16.414Z,46.52
2019-03-04T11:08:20.418Z,46.75
2019-03-04T11:13:24.448Z,46.05
2019-03-04T11:18:28.505Z,48.00
2019-03-04T11:23:32.507Z,72.31
2019-03-04T11:28:36.791Z,86.89
2019-03-04T11:33:41.356Z,92.04
2019-03-04T11:38:47.734Z,92.96
2019-03-04T11:43:52.973Z,90.99
2019-03-04T11:48:57.307Z,92.01
2019-03-04T11:54:01.649Z,93.87
2019-03-04T11:59:05.781Z,92.72
2019-03-04T12:04:10.127Z,89.67
2019-03-04T12:09:14.233Z,89.39
2019-03-04T12:14:18.283Z,87.50
2019-03-04T12:19:22.333Z,83.60
2019-03-04T12:24:26.628Z,79.90
2019-03-04T12:29:30.647Z,78.93
2019-03-04T12:34:34.952Z,78.37
2019-03-04T12:39:39.030Z,74.02
2019-03-04T12:44:43.037Z,72.29
2019-03-04T12:49:47.068Z,70.54
2019-03-04T12:54:51.056Z,67.51
2019-03-04T12:59:55.085Z,63.99
2019-03-04T13:05:01.495Z,61.97
2019-03-04T13:10:06.811Z,60.74
2019-03-04T13:15:14.531Z,58.61
2019-03-04T13:20:18.686Z,58.17
2019-03-04T13:25:22.748Z,56.69
2019-03-04T13:30:27.123Z,54.28
2019-03-04T13:35:31.228Z,50.94
2019-03-04T13:40:35.268Z,50.77
2019-03-04T13:45:40.338Z,49.70
2019-03-04T13:50:44.646Z,48.60
2019-03-04T13:55:48.734Z,46.98
2019-03-04T14:00:52.806Z,46.42
2019-03-04T14:05:56.859Z,48.22
2019-03-04T14:11:01.141Z,46.10
2019-03-04T14:16:05.891Z,45.14
2019-03-04T14:21:10.256Z,47.83
2019-03-04T14:26:17.414Z,47.15
2019-03-04T14:31:23.631Z,47.44
2019-03-04T14:36:29.921Z,46.48
2019-03-04T14:41:36.047Z,46.22
2019-03-04T14:46:41.931Z,48.18
2019-03-04T14:51:49.322Z,49.86
2019-03-04T14:56:56.899Z,48.48
2019-03-04T15:02:00.958Z,48.77
2019-03-04T15:07:06.770Z,50.35
2019-03-04T15:12:11.040Z,50.70
2019-03-04T15:17:29.769Z,48.57
2019-03-04T15:22:35.251Z,48.33
2019-03-04T15:27:39.439Z,48.80
2019-03-04T15:32:43.499Z,49.12
2019-03-04T15:37:47.962Z,49.11
2019-03-04T15:42:52.021Z,49.31
2019-03-04T15:47:56.218Z,50.56
2019-03-04T15:53:00.314Z,49.97
2019-03-04T15:58:04.576Z,50.80
2019-03-04T16:03:08.771Z,50.49
2019-03-04T16:08:13.292Z,54.10
2019-03-04T16:13:17.414Z,74.08
2019-03-04T16:18:23.392Z,94.12
2019-03-04T16:23:29.023Z,99.39
2019-03-04T16:28:34.957Z,99.00
2019-03-04T16:33:39.520Z,97.63
2019-03-04T16:38:45.450Z,98.71
2019-03-04T16:43:52.568Z,98.38
2019-03-04T16:48:57.797Z,98.81
2019-03-04T16:54:03.202Z,98.78
2019-03-04T16:59:07.568Z,96.94
2019-03-04T17:04:11.970Z,97.84
2019-03-04T17:09:18.004Z,95.99
2019-03-04T17:14:22.054Z,94.77
2019-03-04T17:19:26.043Z,94.92
2019-03-04T17:24:30.125Z,96.07
2019-03-04T17:29:34.189Z,95.54
2019-03-04T17:34:38.406Z,94.43
2019-03-04T17:39:42.488Z,92.49
2019-03-04T17:44:46.566Z,93.13
2019-03-04T17:49:50.580Z,92.41
2019-03-04T17:54:54.632Z,90.67
2019-03-04T17:59:58.663Z,90.97
2019-03-04T18:05:02.700Z,91.52
2019-03-04T18:10:09.522Z,90.14
2019-03-04T18:15:16.163Z,90.82
2019-03-04T18:20:20.694Z,88.98
2019-03-04T18:25:29.429Z,87.60
2019-03-04T18:31:04.407Z,88.41
2019-03-04T18:36:32.342Z,88.28
2019-03-04T18:42:25.844Z,87.28
2019-03-04T18:47:52.206Z,87.87
2019-03-04T18:52:56.515Z,88.38
2019-03-04T18:58:01.995Z,86.54
2019-03-04T19:03:06.081Z,86.57
2019-03-04T19:08:10.235Z,87.22
2019-03-04T19:13:15.739Z,84.17
2019-03-04T19:18:22.434Z,82.20
2019-03-04T19:23:31.175Z,81.05
2019-03-04T19:28:40.972Z,78.89
2019-03-04T19:33:49.076Z,78.00
2019-03-04T19:39:02.191Z,77.35
2019-03-04T19:44:10.198Z,75.92
2019-03-04T19:49:18.657Z,76.20
2019-03-04T19:54:30.972Z,76.16
2019-03-04T19:59:36.174Z,76.56
2019-03-04T20:04:41.261Z,73.73
2019-03-04T20:09:47.577Z,73.91
2019-03-04T20:14:52.493Z,73.43
2019-03-04T20:19:56.926Z,73.03
2019-03-04T20:25:00.988Z,72.59
2019-03-04T20:30:07.070Z,73.11
2019-03-04T20:35:11.999Z,73.54
2019-03-04T20:40:16.193Z,73.44
2019-03-04T20:45:20.649Z,71.47
2019-03-04T20:50:25.000Z,71.08
2019-03-04T20:55:29.338Z,71.67
2019-03-04T21:00:33.698Z,71.66
2019-03-04T21:05:37.851Z,70.16
2019-03-04T21:10:50.887Z,70.59
2019-03-04T21:15:56.292Z,70.75
2019-03-04T21:21:03.624Z,71.03
2019-03-04T21:26:38.681Z,69.35
2019-03-04T21:32:02.641Z,69.79
2019-03-04T21:37:23.115Z,70.07
2019-03-04T21:42:32.012Z,69.48
2019-03-04T21:47:40.228Z,70.15
2019-03-04T21:53:14.333Z,69.73
2019-03-04T21:58:18.589Z,69.73
2019-03-04T22:03:28.497Z,70.14
2019-03-04T22:08:33.174Z,69.37
2019-03-04T22:13:38.399Z,68.48
2019-03-04T22:18:42.485Z,68.23
2019-03-04T22:23:46.629Z,67.50
2019-03-04T22:28:50.658Z,68.79
2019-03-04T22:33:54.669Z,69.26
2019-03-04T22:38:59.275Z,68.75
2019-03-04T22:44:03.466Z,68.81
2019-03-04T22:49:07.477Z,69.86
2019-03-04T22:54:12.651Z,68.50
2019-03-04T22:59:16.762Z,68.85
2019-03-04T23:04:32.775Z,68.68
2019-03-04T23:09:48.366Z,69.11
2019-03-04T23:14:52.805Z,69.35
2019-03-04T23:19:56.822Z,68.81
2019-03-04T23:25:00.934Z,68.52
2019-03-04T23:30:06.907Z,67.45
2019-03-04T23:35:10.984Z,68.79
2019-03-04T23:40:15.628Z,68.29
2019-03-04T23:45:19.612Z,67.59
2019-03-04T23:50:23.690Z,67.73
2019-03-04T23:55:27.792Z,67.40
